Melbourne, Australia

8:38 AM AEDT on December 16, 2018 (GMT +1100)
3051 Massive | | Change Station

Elev 85 ft 37.80 °S, 144.94 °E | Updated 35 minutes ago

Overcast
Overcast
64.9 °F
Feels Like 64.9 °F
N
3.4
Wind Variable Wind from SSE
Gusts 4.9 mph

Today
High -- | Low -- °F
--% Chance of Precip.
Yesterday
High -- | Low -- °F
Precip. -- in
Pressure 29.68 in
Visibility 6.2 miles
Clouds Few 1600 ft
Scattered Clouds 7500 ft
Mostly Cloudy 9500 ft
Dew Point 56 °F
Humidity 73%
Rainfall 0.07 in
Snow Depth Not available.
5:52 AM 8:38 PM
First Quarter, 54% visible
METAR YMML 152100Z 36011KT 9999 FEW016 SCT075 BKN095 17/13 Q1005 INTER 2200/2400 4000 SHRA SCT020 BKN040
Pressure 29.68 in
Visibility 6.2 miles
Clouds Few 1600 ft
Scattered Clouds 7500 ft
Mostly Cloudy 9500 ft
Dew Point 56 °F
Humidity 73%
Rainfall 0.07 in
Snow Depth Not available.
5:52 AM 8:38 PM
First Quarter, 54% visible
METAR YMML 152100Z 36011KT 9999 FEW016 SCT075 BKN095 17/13 Q1005 INTER 2200/2400 4000 SHRA SCT020 BKN040

Get Severe Weather Alerts

Thanks for signing up!

Be on the lookout for a verification email in your inbox.

You'll start receiving the daily forecast at 6 AM.

×

10-Day Weather Forecast

×

Almanac

Astronomy

Dec. 16, 2018 Rise Set
Actual Time
Civil Twilight
Nautical Twilight
Astronomical Twilight
Moon
Length of Visible Light
Length of Day
Tomorrow will be .
, % of the Moon is Illuminated

Today's Extremes

Country Highs Country Lows

Community

WunderPhotos

Category 6

Welcome to Category 6. This is the collective home for Weather Underground's featured writeups by Dr. Jeff Masters (right), Bob Henson (left), Chris Burt, and other regular contributors.

Nearby

Air Quality

  Air Quality AQ Index Pollutant
Not available.

Snow Depth

Station Depth Elevation

Earthquake Activity

City Distance Mag. Time & Date
Minimum magnitude displayed is 2.5.

Coastal Water Temperatures

Place Temperature

Stations

Nearby Weather Stations

Station Location Temp. Windchill Dew Point Humidity Wind Precip. Elev Updated Type